sensor_id;sensor_type;location;lat;lon;timestamp;pressure;altitude;pressure_sealevel;temperature;humidity
46379;BME280;32084;42.254;22.744;2024-02-26T00:01:41;94709.03;;;8.83;93.84
46379;BME280;32084;42.254;22.744;2024-02-26T00:04:09;94706.38;;;8.83;94.95
46379;BME280;32084;42.254;22.744;2024-02-26T00:06:36;94712.22;;;8.86;94.88
46379;BME280;32084;42.254;22.744;2024-02-26T00:09:02;94707.72;;;8.95;94.58
46379;BME280;32084;42.254;22.744;2024-02-26T00:11:31;94708.81;;;9.27;92.51
46379;BME280;32084;42.254;22.744;2024-02-26T00:13:57;94708.50;;;9.30;92.24
46379;BME280;32084;42.254;22.744;2024-02-26T00:16:24;94712.34;;;9.35;91.79
46379;BME280;32084;42.254;22.744;2024-02-26T00:18:50;94708.50;;;9.38;91.98
46379;BME280;32084;42.254;22.744;2024-02-26T00:21:16;94703.00;;;9.48;91.03
46379;BME280;32084;42.254;22.744;2024-02-26T00:23:43;94709.00;;;9.50;90.89
46379;BME280;32084;42.254;22.744;2024-02-26T00:26:09;94711.19;;;9.54;90.54
46379;BME280;32084;42.254;22.744;2024-02-26T00:28:37;94709.03;;;9.58;89.93
46379;BME280;32084;42.254;22.744;2024-02-26T00:31:03;94701.50;;;9.62;89.61
46379;BME280;32084;42.254;22.744;2024-02-26T00:33:29;94707.19;;;9.67;89.38
46379;BME280;32084;42.254;22.744;2024-02-26T00:35:55;94699.84;;;9.52;90.47
46379;BME280;32084;42.254;22.744;2024-02-26T00:38:21;94698.50;;;9.40;91.18
46379;BME280;32084;42.254;22.744;2024-02-26T00:40:48;94702.00;;;9.32;91.96
46379;BME280;32084;42.254;22.744;2024-02-26T00:43:14;94703.97;;;9.22;92.15
46379;BME280;32084;42.254;22.744;2024-02-26T00:45:40;94708.97;;;9.17;92.07
46379;BME280;32084;42.254;22.744;2024-02-26T00:48:06;94703.28;;;9.12;92.49
46379;BME280;32084;42.254;22.744;2024-02-26T00:50:36;94700.59;;;8.95;93.00
46379;BME280;32084;42.254;22.744;2024-02-26T00:53:02;94697.78;;;9.05;92.71
46379;BME280;32084;42.254;22.744;2024-02-26T00:55:28;94695.38;;;8.86;94.05
46379;BME280;32084;42.254;22.744;2024-02-26T00:57:55;94691.47;;;8.64;95.29
46379;BME280;32084;42.254;22.744;2024-02-26T01:00:21;94689.31;;;8.67;95.66
46379;BME280;32084;42.254;22.744;2024-02-26T01:02:47;94681.06;;;8.95;94.00
46379;BME280;32084;42.254;22.744;2024-02-26T01:05:14;94682.81;;;9.21;92.68
46379;BME280;32084;42.254;22.744;2024-02-26T01:07:40;94682.75;;;9.12;93.38
46379;BME280;32084;42.254;22.744;2024-02-26T01:10:06;94679.94;;;9.14;93.08
46379;BME280;32084;42.254;22.744;2024-02-26T01:12:33;94679.47;;;9.18;91.80
46379;BME280;32084;42.254;22.744;2024-02-26T01:15:00;94683.63;;;8.62;92.98
46379;BME280;32084;42.254;22.744;2024-02-26T01:17:27;94674.25;;;8.50;94.83
46379;BME280;32084;42.254;22.744;2024-02-26T01:19:53;94677.59;;;8.52;94.62
46379;BME280;32084;42.254;22.744;2024-02-26T01:22:19;94662.97;;;8.64;94.60
46379;BME280;32084;42.254;22.744;2024-02-26T01:24:46;94668.03;;;8.75;93.97
46379;BME280;32084;42.254;22.744;2024-02-26T01:27:12;94669.19;;;8.81;93.69
46379;BME280;32084;42.254;22.744;2024-02-26T01:29:40;94669.56;;;8.86;93.53
46379;BME280;32084;42.254;22.744;2024-02-26T01:32:06;94671.94;;;8.97;93.25
46379;BME280;32084;42.254;22.744;2024-02-26T01:34:32;94663.56;;;8.92;93.77
46379;BME280;32084;42.254;22.744;2024-02-26T01:36:58;94675.38;;;8.82;93.81
46379;BME280;32084;42.254;22.744;2024-02-26T01:39:24;94673.56;;;8.82;94.04
46379;BME280;32084;42.254;22.744;2024-02-26T01:41:51;94666.38;;;8.83;93.95
46379;BME280;32084;42.254;22.744;2024-02-26T01:44:17;94662.59;;;9.02;93.24
46379;BME280;32084;42.254;22.744;2024-02-26T01:46:43;94666.94;;;9.11;92.56
46379;BME280;32084;42.254;22.744;2024-02-26T01:49:10;94666.44;;;9.15;92.40
46379;BME280;32084;42.254;22.744;2024-02-26T01:51:37;94655.13;;;9.13;92.04
46379;BME280;32084;42.254;22.744;2024-02-26T01:54:05;94663.44;;;9.02;92.43
46379;BME280;32084;42.254;22.744;2024-02-26T01:56:31;94658.75;;;9.12;92.07
46379;BME280;32084;42.254;22.744;2024-02-26T01:58:58;94653.06;;;8.83;92.46
46379;BME280;32084;42.254;22.744;2024-02-26T02:01:25;94654.97;;;8.56;94.84
46379;BME280;32084;42.254;22.744;2024-02-26T02:03:51;94658.53;;;8.81;94.06
46379;BME280;32084;42.254;22.744;2024-02-26T02:06:17;94650.25;;;9.01;93.19
46379;BME280;32084;42.254;22.744;2024-02-26T02:08:44;94657.63;;;9.15;92.95
46379;BME280;32084;42.254;22.744;2024-02-26T02:11:11;94649.78;;;9.13;93.33
46379;BME280;32084;42.254;22.744;2024-02-26T02:13:40;94655.13;;;9.22;92.04
46379;BME280;32084;42.254;22.744;2024-02-26T02:16:06;94654.28;;;9.29;91.77
46379;BME280;32084;42.254;22.744;2024-02-26T02:18:33;94650.63;;;9.22;91.63
46379;BME280;32084;42.254;22.744;2024-02-26T02:21:00;94655.13;;;9.22;91.86
46379;BME280;32084;42.254;22.744;2024-02-26T02:23:26;94646.94;;;9.23;91.97
46379;BME280;32084;42.254;22.744;2024-02-26T02:25:52;94655.63;;;9.25;92.67
46379;BME280;32084;42.254;22.744;2024-02-26T02:28:19;94643.88;;;8.85;93.08
46379;BME280;32084;42.254;22.744;2024-02-26T02:30:45;94647.50;;;8.59;95.23
46379;BME280;32084;42.254;22.744;2024-02-26T02:33:11;94655.94;;;8.47;96.12
46379;BME280;32084;42.254;22.744;2024-02-26T02:35:38;94650.75;;;8.45;96.28
46379;BME280;32084;42.254;22.744;2024-02-26T02:38:04;94647.66;;;8.66;95.72
46379;BME280;32084;42.254;22.744;2024-02-26T02:40:30;94647.72;;;8.83;94.81
46379;BME280;32084;42.254;22.744;2024-02-26T02:42:56;94641.78;;;9.05;94.08
46379;BME280;32084;42.254;22.744;2024-02-26T02:45:22;94642.44;;;9.15;93.79
46379;BME280;32084;42.254;22.744;2024-02-26T02:47:49;94639.56;;;8.84;94.69
46379;BME280;32084;42.254;22.744;2024-02-26T02:50:15;94638.03;;;8.82;95.67
46379;BME280;32084;42.254;22.744;2024-02-26T02:52:41;94644.09;;;8.92;94.78
46379;BME280;32084;42.254;22.744;2024-02-26T02:55:07;94637.41;;;8.96;94.70
46379;BME280;32084;42.254;22.744;2024-02-26T02:57:34;94646.41;;;8.95;94.70
46379;BME280;32084;42.254;22.744;2024-02-26T03:00:00;94641.75;;;8.97;93.63
46379;BME280;32084;42.254;22.744;2024-02-26T03:02:26;94639.44;;;9.02;93.29
46379;BME280;32084;42.254;22.744;2024-02-26T03:04:52;94633.38;;;8.84;94.11
46379;BME280;32084;42.254;22.744;2024-02-26T03:07:18;94634.69;;;8.71;95.01
46379;BME280;32084;42.254;22.744;2024-02-26T03:09:45;94638.41;;;8.87;94.95
46379;BME280;32084;42.254;22.744;2024-02-26T03:12:11;94638.19;;;8.80;95.11
46379;BME280;32084;42.254;22.744;2024-02-26T03:14:37;94641.00;;;8.62;95.00
46379;BME280;32084;42.254;22.744;2024-02-26T03:17:03;94648.69;;;8.65;95.26
46379;BME280;32084;42.254;22.744;2024-02-26T03:19:29;94638.69;;;8.75;95.29
46379;BME280;32084;42.254;22.744;2024-02-26T03:21:56;94637.72;;;8.76;95.13
46379;BME280;32084;42.254;22.744;2024-02-26T03:24:22;94637.81;;;8.67;95.84
46379;BME280;32084;42.254;22.744;2024-02-26T03:26:48;94635.31;;;8.57;94.67
46379;BME280;32084;42.254;22.744;2024-02-26T03:29:14;94627.75;;;8.44;95.35
46379;BME280;32084;42.254;22.744;2024-02-26T03:31:40;94627.44;;;8.47;95.73
46379;BME280;32084;42.254;22.744;2024-02-26T03:34:06;94627.66;;;8.54;95.54
46379;BME280;32084;42.254;22.744;2024-02-26T03:36:32;94632.31;;;8.60;95.21
46379;BME280;32084;42.254;22.744;2024-02-26T03:38:59;94631.50;;;8.59;94.95
46379;BME280;32084;42.254;22.744;2024-02-26T03:41:25;94633.28;;;8.51;95.46
46379;BME280;32084;42.254;22.744;2024-02-26T03:43:52;94635.16;;;8.58;95.17
46379;BME280;32084;42.254;22.744;2024-02-26T03:46:18;94625.50;;;8.57;95.55
46379;BME280;32084;42.254;22.744;2024-02-26T03:48:44;94626.78;;;8.53;95.83
46379;BME280;32084;42.254;22.744;2024-02-26T03:51:10;94621.31;;;8.55;96.15
46379;BME280;32084;42.254;22.744;2024-02-26T03:53:36;94609.00;;;8.19;95.41
46379;BME280;32084;42.254;22.744;2024-02-26T03:56:03;94611.81;;;8.18;95.99
46379;BME280;32084;42.254;22.744;2024-02-26T03:58:29;94619.19;;;8.32;95.67
46379;BME280;32084;42.254;22.744;2024-02-26T04:00:56;94609.88;;;8.36;95.55
46379;BME280;32084;42.254;22.744;2024-02-26T04:03:22;94621.06;;;8.40;95.69
46379;BME280;32084;42.254;22.744;2024-02-26T04:05:48;94627.53;;;8.37;95.50
46379;BME280;32084;42.254;22.744;2024-02-26T04:08:14;94629.31;;;8.20;95.38
46379;BME280;32084;42.254;22.744;2024-02-26T04:10:40;94621.19;;;7.96;96.77
46379;BME280;32084;42.254;22.744;2024-02-26T04:13:07;94617.22;;;7.74;98.15
46379;BME280;32084;42.254;22.744;2024-02-26T04:15:33;94618.78;;;7.85;98.41
46379;BME280;32084;42.254;22.744;2024-02-26T04:17:59;94608.13;;;8.11;97.46
46379;BME280;32084;42.254;22.744;2024-02-26T04:20:25;94611.69;;;8.28;96.38
46379;BME280;32084;42.254;22.744;2024-02-26T04:22:52;94605.06;;;8.32;96.17
46379;BME280;32084;42.254;22.744;2024-02-26T04:25:18;94607.22;;;8.36;96.63
46379;BME280;32084;42.254;22.744;2024-02-26T04:27:45;94603.59;;;8.03;96.34
46379;BME280;32084;42.254;22.744;2024-02-26T04:30:11;94609.25;;;7.74;99.02
46379;BME280;32084;42.254;22.744;2024-02-26T04:32:37;94605.59;;;7.75;99.12
46379;BME280;32084;42.254;22.744;2024-02-26T04:35:03;94612.28;;;7.79;99.90
46379;BME280;32084;42.254;22.744;2024-02-26T04:37:29;94610.06;;;8.00;99.39
46379;BME280;32084;42.254;22.744;2024-02-26T04:40:00;94620.16;;;8.23;98.21
46379;BME280;32084;42.254;22.744;2024-02-26T04:42:26;94623.44;;;8.43;96.63
46379;BME280;32084;42.254;22.744;2024-02-26T04:44:54;94622.94;;;8.48;96.40
46379;BME280;32084;42.254;22.744;2024-02-26T04:47:20;94628.63;;;8.45;96.38
46379;BME280;32084;42.254;22.744;2024-02-26T04:49:49;94622.94;;;8.48;95.55
46379;BME280;32084;42.254;22.744;2024-02-26T04:52:15;94627.53;;;8.37;94.98
46379;BME280;32084;42.254;22.744;2024-02-26T04:54:41;94631.66;;;8.24;95.74
46379;BME280;32084;42.254;22.744;2024-02-26T04:57:07;94621.97;;;8.14;95.29
46379;BME280;32084;42.254;22.744;2024-02-26T04:59:33;94629.88;;;8.06;96.57
46379;BME280;32084;42.254;22.744;2024-02-26T05:02:00;94622.41;;;8.10;96.22
46379;BME280;32084;42.254;22.744;2024-02-26T05:04:26;94625.19;;;8.00;96.95
46379;BME280;32084;42.254;22.744;2024-02-26T05:06:52;94618.94;;;7.83;98.61
46379;BME280;32084;42.254;22.744;2024-02-26T05:09:19;94622.41;;;7.75;99.92
46379;BME280;32084;42.254;22.744;2024-02-26T05:11:46;94621.47;;;7.85;99.77
46379;BME280;32084;42.254;22.744;2024-02-26T05:14:12;94633.41;;;8.07;98.70
46379;BME280;32084;42.254;22.744;2024-02-26T05:16:38;94637.94;;;8.14;98.00
46379;BME280;32084;42.254;22.744;2024-02-26T05:19:04;94637.41;;;8.11;98.40
46379;BME280;32084;42.254;22.744;2024-02-26T05:21:31;94642.13;;;8.25;97.98
46379;BME280;32084;42.254;22.744;2024-02-26T05:23:57;94639.28;;;8.45;96.96
46379;BME280;32084;42.254;22.744;2024-02-26T05:26:24;94648.09;;;8.53;96.19
46379;BME280;32084;42.254;22.744;2024-02-26T05:28:50;94650.63;;;8.55;95.94
46379;BME280;32084;42.254;22.744;2024-02-26T05:31:16;94652.00;;;8.33;96.97
46379;BME280;32084;42.254;22.744;2024-02-26T05:33:42;94659.53;;;8.11;98.48
46379;BME280;32084;42.254;22.744;2024-02-26T05:36:09;94661.34;;;8.02;98.77
46379;BME280;32084;42.254;22.744;2024-02-26T05:38:35;94668.00;;;8.07;99.02
46379;BME280;32084;42.254;22.744;2024-02-26T05:41:01;94666.63;;;8.29;97.64
46379;BME280;32084;42.254;22.744;2024-02-26T05:43:27;94667.19;;;8.40;96.53
46379;BME280;32084;42.254;22.744;2024-02-26T05:45:54;94663.25;;;8.45;96.47
46379;BME280;32084;42.254;22.744;2024-02-26T05:48:21;94665.91;;;8.45;95.81
46379;BME280;32084;42.254;22.744;2024-02-26T05:50:47;94669.50;;;8.09;97.38
46379;BME280;32084;42.254;22.744;2024-02-26T05:53:13;94667.88;;;8.08;98.25
46379;BME280;32084;42.254;22.744;2024-02-26T05:55:39;94672.63;;;8.31;97.39
46379;BME280;32084;42.254;22.744;2024-02-26T05:58:06;94674.06;;;8.43;96.48
46379;BME280;32084;42.254;22.744;2024-02-26T06:00:32;94678.91;;;8.48;96.51
46379;BME280;32084;42.254;22.744;2024-02-26T06:02:58;94673.63;;;8.56;96.38
46379;BME280;32084;42.254;22.744;2024-02-26T06:05:24;94672.28;;;8.60;96.49
46379;BME280;32084;42.254;22.744;2024-02-26T06:07:50;94669.50;;;8.70;96.23
46379;BME280;32084;42.254;22.744;2024-02-26T06:10:17;94673.72;;;8.81;95.37
46379;BME280;32084;42.254;22.744;2024-02-26T06:12:47;94674.84;;;8.78;95.78
46379;BME280;32084;42.254;22.744;2024-02-26T06:15:13;94677.13;;;8.65;97.18
46379;BME280;32084;42.254;22.744;2024-02-26T06:17:39;94676.06;;;8.49;98.47
46379;BME280;32084;42.254;22.744;2024-02-26T06:20:06;94677.41;;;8.45;98.84
46379;BME280;32084;42.254;22.744;2024-02-26T06:22:32;94672.28;;;8.52;97.79
46379;BME280;32084;42.254;22.744;2024-02-26T06:24:58;94670.28;;;8.54;97.72
46379;BME280;32084;42.254;22.744;2024-02-26T06:27:25;94677.13;;;8.65;97.42
46379;BME280;32084;42.254;22.744;2024-02-26T06:29:51;94674.22;;;8.84;96.64
46379;BME280;32084;42.254;22.744;2024-02-26T06:32:17;94677.06;;;8.91;96.17
46379;BME280;32084;42.254;22.744;2024-02-26T06:34:43;94680.59;;;8.99;96.30
46379;BME280;32084;42.254;22.744;2024-02-26T06:37:09;94677.25;;;8.97;96.83
46379;BME280;32084;42.254;22.744;2024-02-26T06:39:36;94684.44;;;9.05;96.61
46379;BME280;32084;42.254;22.744;2024-02-26T06:42:02;94686.75;;;9.08;96.53
46379;BME280;32084;42.254;22.744;2024-02-26T06:44:28;94692.75;;;8.94;97.54
46379;BME280;32084;42.254;22.744;2024-02-26T06:47:00;94693.38;;;8.88;97.77
46379;BME280;32084;42.254;22.744;2024-02-26T06:49:28;94692.38;;;8.89;98.23
46379;BME280;32084;42.254;22.744;2024-02-26T06:51:55;94701.41;;;9.04;97.83
46379;BME280;32084;42.254;22.744;2024-02-26T06:54:21;94695.94;;;9.14;95.92
46379;BME280;32084;42.254;22.744;2024-02-26T06:56:47;94694.47;;;9.19;96.08
46379;BME280;32084;42.254;22.744;2024-02-26T06:59:13;94700.81;;;9.35;95.38
46379;BME280;32084;42.254;22.744;2024-02-26T07:01:40;94705.50;;;9.49;94.26
46379;BME280;32084;42.254;22.744;2024-02-26T07:04:07;94707.00;;;9.52;94.67
46379;BME280;32084;42.254;22.744;2024-02-26T07:06:33;94707.19;;;9.58;94.09
46379;BME280;32084;42.254;22.744;2024-02-26T07:08:59;94716.69;;;9.61;95.19
46379;BME280;32084;42.254;22.744;2024-02-26T07:11:25;94714.84;;;9.53;95.28
46379;BME280;32084;42.254;22.744;2024-02-26T07:13:51;94711.84;;;9.65;94.62
46379;BME280;32084;42.254;22.744;2024-02-26T07:16:18;94712.38;;;9.85;93.92
46379;BME280;32084;42.254;22.744;2024-02-26T07:18:44;94710.84;;;9.99;93.03
46379;BME280;32084;42.254;22.744;2024-02-26T07:21:11;94704.19;;;10.03;93.45
46379;BME280;32084;42.254;22.744;2024-02-26T07:23:37;94708.34;;;9.97;93.33
46379;BME280;32084;42.254;22.744;2024-02-26T07:26:03;94717.53;;;9.94;92.32
46379;BME280;32084;42.254;22.744;2024-02-26T07:28:30;94711.53;;;10.01;93.29
46379;BME280;32084;42.254;22.744;2024-02-26T07:30:56;94707.03;;;10.09;91.91
46379;BME280;32084;42.254;22.744;2024-02-26T07:33:22;94711.50;;;10.17;92.73
46379;BME280;32084;42.254;22.744;2024-02-26T07:35:48;94705.16;;;10.26;91.88
46379;BME280;32084;42.254;22.744;2024-02-26T07:38:14;94705.81;;;10.28;90.74
46379;BME280;32084;42.254;22.744;2024-02-26T07:40:41;94710.16;;;10.29;91.35
46379;BME280;32084;42.254;22.744;2024-02-26T07:43:07;94704.63;;;10.39;91.91
46379;BME280;32084;42.254;22.744;2024-02-26T07:45:34;94698.63;;;10.45;90.52
46379;BME280;32084;42.254;22.744;2024-02-26T07:48:02;94703.78;;;10.55;91.18
46379;BME280;32084;42.254;22.744;2024-02-26T07:50:28;94702.38;;;10.67;90.07
46379;BME280;32084;42.254;22.744;2024-02-26T07:52:55;94696.53;;;10.64;90.61
46379;BME280;32084;42.254;22.744;2024-02-26T07:55:21;94699.53;;;10.69;91.40
46379;BME280;32084;42.254;22.744;2024-02-26T07:57:48;94706.75;;;11.00;89.69
46379;BME280;32084;42.254;22.744;2024-02-26T08:00:14;94705.22;;;11.13;89.61
46379;BME280;32084;42.254;22.744;2024-02-26T08:02:43;94702.88;;;11.10;90.50
46379;BME280;32084;42.254;22.744;2024-02-26T08:05:10;94698.97;;;11.21;90.16
46379;BME280;32084;42.254;22.744;2024-02-26T08:07:36;94710.38;;;11.46;88.67
46379;BME280;32084;42.254;22.744;2024-02-26T08:10:02;94701.53;;;11.38;89.17
46379;BME280;32084;42.254;22.744;2024-02-26T08:12:28;94699.16;;;11.20;89.58
46379;BME280;32084;42.254;22.744;2024-02-26T08:14:54;94709.41;;;11.39;88.86
46379;BME280;32084;42.254;22.744;2024-02-26T08:17:21;94699.72;;;11.61;87.34
46379;BME280;32084;42.254;22.744;2024-02-26T08:19:47;94703.09;;;11.55;88.05
46379;BME280;32084;42.254;22.744;2024-02-26T08:22:14;94698.88;;;11.61;88.00
46379;BME280;32084;42.254;22.744;2024-02-26T08:24:42;94709.38;;;11.70;87.28
46379;BME280;32084;42.254;22.744;2024-02-26T08:27:08;94706.31;;;11.97;86.21
46379;BME280;32084;42.254;22.744;2024-02-26T08:29:34;94710.16;;;12.17;85.99
46379;BME280;32084;42.254;22.744;2024-02-26T08:32:00;94710.75;;;12.27;84.50
46379;BME280;32084;42.254;22.744;2024-02-26T08:34:27;94710.56;;;12.44;83.88
46379;BME280;32084;42.254;22.744;2024-02-26T08:36:53;94703.59;;;12.20;84.44
46379;BME280;32084;42.254;22.744;2024-02-26T08:39:19;94705.09;;;12.22;84.50
46379;BME280;32084;42.254;22.744;2024-02-26T08:41:46;94702.91;;;12.41;84.37
46379;BME280;32084;42.254;22.744;2024-02-26T08:44:12;94695.63;;;12.64;82.18
46379;BME280;32084;42.254;22.744;2024-02-26T08:46:38;94698.69;;;12.46;82.40
46379;BME280;32084;42.254;22.744;2024-02-26T08:49:04;94694.69;;;12.57;82.66
46379;BME280;32084;42.254;22.744;2024-02-26T08:51:31;94689.22;;;12.80;81.64
46379;BME280;32084;42.254;22.744;2024-02-26T08:53:57;94696.72;;;12.85;81.59
46379;BME280;32084;42.254;22.744;2024-02-26T08:56:23;94709.22;;;12.93;81.26
46379;BME280;32084;42.254;22.744;2024-02-26T08:58:49;94696.41;;;13.09;79.55
46379;BME280;32084;42.254;22.744;2024-02-26T09:01:19;94700.75;;;13.11;78.89
46379;BME280;32084;42.254;22.744;2024-02-26T09:03:45;94696.78;;;12.92;78.72
46379;BME280;32084;42.254;22.744;2024-02-26T09:06:14;94687.81;;;12.99;79.84
46379;BME280;32084;42.254;22.744;2024-02-26T09:08:40;94689.00;;;13.12;80.11
46379;BME280;32084;42.254;22.744;2024-02-26T09:11:06;94690.75;;;13.34;79.33
46379;BME280;32084;42.254;22.744;2024-02-26T09:13:32;94690.06;;;13.47;78.61
46379;BME280;32084;42.254;22.744;2024-02-26T09:15:58;94687.75;;;13.44;78.69
46379;BME280;32084;42.254;22.744;2024-02-26T09:18:25;94694.06;;;13.21;78.36
46379;BME280;32084;42.254;22.744;2024-02-26T09:20:51;94682.25;;;13.31;79.19
46379;BME280;32084;42.254;22.744;2024-02-26T09:23:17;94689.13;;;13.55;78.13
46379;BME280;32084;42.254;22.744;2024-02-26T09:25:43;94688.34;;;13.39;77.59
46379;BME280;32084;42.254;22.744;2024-02-26T09:28:09;94682.88;;;13.33;78.92
46379;BME280;32084;42.254;22.744;2024-02-26T09:30:35;94684.63;;;13.25;78.66
46379;BME280;32084;42.254;22.744;2024-02-26T09:33:02;94682.69;;;13.34;77.93
46379;BME280;32084;42.254;22.744;2024-02-26T09:35:28;94684.97;;;13.37;78.52
46379;BME280;32084;42.254;22.744;2024-02-26T09:37:55;94681.47;;;13.22;76.92
46379;BME280;32084;42.254;22.744;2024-02-26T09:40:21;94680.28;;;13.24;77.21
46379;BME280;32084;42.254;22.744;2024-02-26T09:42:48;94682.75;;;13.26;75.14
46379;BME280;32084;42.254;22.744;2024-02-26T09:45:19;94676.56;;;13.40;74.90
46379;BME280;32084;42.254;22.744;2024-02-26T09:47:47;94681.88;;;13.55;74.96
46379;BME280;32084;42.254;22.744;2024-02-26T09:50:14;94676.78;;;13.60;74.67
46379;BME280;32084;42.254;22.744;2024-02-26T09:52:41;94675.63;;;13.91;72.82
46379;BME280;32084;42.254;22.744;2024-02-26T09:55:07;94670.91;;;14.00;72.62
46379;BME280;32084;42.254;22.744;2024-02-26T09:57:34;94675.91;;;14.03;72.20
46379;BME280;32084;42.254;22.744;2024-02-26T10:00:00;94670.50;;;14.24;70.51
46379;BME280;32084;42.254;22.744;2024-02-26T10:02:29;94663.72;;;14.57;71.11
46379;BME280;32084;42.254;22.744;2024-02-26T10:04:56;94666.03;;;15.01;70.70
46379;BME280;32084;42.254;22.744;2024-02-26T10:07:23;94658.03;;;15.21;66.21
46379;BME280;32084;42.254;22.744;2024-02-26T10:09:49;94656.50;;;14.99;69.27
46379;BME280;32084;42.254;22.744;2024-02-26T10:12:16;94650.19;;;14.78;68.97
46379;BME280;32084;42.254;22.744;2024-02-26T10:14:43;94654.75;;;14.78;68.29
46379;BME280;32084;42.254;22.744;2024-02-26T10:17:09;94647.44;;;14.72;69.74
46379;BME280;32084;42.254;22.744;2024-02-26T10:19:36;94648.13;;;14.80;68.45
46379;BME280;32084;42.254;22.744;2024-02-26T10:22:02;94648.16;;;14.87;68.65
46379;BME280;32084;42.254;22.744;2024-02-26T10:24:30;94640.19;;;14.66;67.87
46379;BME280;32084;42.254;22.744;2024-02-26T10:26:56;94643.13;;;14.77;69.60
46379;BME280;32084;42.254;22.744;2024-02-26T10:29:25;94639.94;;;15.02;68.24
46379;BME280;32084;42.254;22.744;2024-02-26T10:31:52;94639.94;;;15.02;67.17
46379;BME280;32084;42.254;22.744;2024-02-26T10:34:18;94643.63;;;14.94;66.20
46379;BME280;32084;42.254;22.744;2024-02-26T10:36:44;94637.09;;;15.10;65.63
46379;BME280;32084;42.254;22.744;2024-02-26T10:39:14;94630.66;;;15.11;65.58
46379;BME280;32084;42.254;22.744;2024-02-26T10:41:41;94624.88;;;15.21;64.51
46379;BME280;32084;42.254;22.744;2024-02-26T10:44:10;94631.22;;;15.00;63.25
46379;BME280;32084;42.254;22.744;2024-02-26T10:46:37;94628.28;;;14.88;63.39
46379;BME280;32084;42.254;22.744;2024-02-26T10:49:03;94633.69;;;14.95;62.91
46379;BME280;32084;42.254;22.744;2024-02-26T10:51:30;94632.47;;;14.97;65.27
46379;BME280;32084;42.254;22.744;2024-02-26T10:53:57;94617.63;;;15.08;64.61
46379;BME280;32084;42.254;22.744;2024-02-26T10:56:25;94623.25;;;15.27;63.62
46379;BME280;32084;42.254;22.744;2024-02-26T10:58:54;94626.72;;;15.14;63.44
46379;BME280;32084;42.254;22.744;2024-02-26T11:01:21;94627.91;;;14.91;63.68
46379;BME280;32084;42.254;22.744;2024-02-26T11:03:49;94611.38;;;15.08;62.79
46379;BME280;32084;42.254;22.744;2024-02-26T11:06:16;94617.53;;;14.95;62.66
46379;BME280;32084;42.254;22.744;2024-02-26T11:08:43;94617.13;;;14.91;64.01
46379;BME280;32084;42.254;22.744;2024-02-26T11:11:10;94615.06;;;14.93;64.04
46379;BME280;32084;42.254;22.744;2024-02-26T11:13:41;94609.69;;;15.00;63.63
46379;BME280;32084;42.254;22.744;2024-02-26T11:16:11;94614.06;;;15.08;62.83
46379;BME280;32084;42.254;22.744;2024-02-26T11:18:38;94611.41;;;15.21;62.16
46379;BME280;32084;42.254;22.744;2024-02-26T11:21:05;94605.69;;;15.51;61.39
46379;BME280;32084;42.254;22.744;2024-02-26T11:23:34;94617.47;;;15.36;61.09
46379;BME280;32084;42.254;22.744;2024-02-26T11:26:03;94602.97;;;15.37;62.32
46379;BME280;32084;42.254;22.744;2024-02-26T11:28:31;94603.19;;;15.42;62.13
46379;BME280;32084;42.254;22.744;2024-02-26T11:30:59;94600.09;;;15.59;61.04
46379;BME280;32084;42.254;22.744;2024-02-26T11:33:26;94608.03;;;15.80;59.69
46379;BME280;32084;42.254;22.744;2024-02-26T11:35:53;94602.41;;;15.82;59.76
46379;BME280;32084;42.254;22.744;2024-02-26T11:38:20;94603.25;;;15.76;58.93
46379;BME280;32084;42.254;22.744;2024-02-26T11:40:47;94599.94;;;15.74;58.72
46379;BME280;32084;42.254;22.744;2024-02-26T11:43:14;94600.75;;;15.74;59.22
46379;BME280;32084;42.254;22.744;2024-02-26T11:48:11;94610.25;;;15.70;58.94
46379;BME280;32084;42.254;22.744;2024-02-26T11:50:45;94604.69;;;15.72;59.01
46379;BME280;32084;42.254;22.744;2024-02-26T11:58:41;94594.72;;;15.52;59.60
46379;BME280;32084;42.254;22.744;2024-02-26T12:03:53;94597.25;;;15.94;57.67
46379;BME280;32084;42.254;22.744;2024-02-26T12:06:20;94596.22;;;16.02;57.96
46379;BME280;32084;42.254;22.744;2024-02-26T12:08:47;94596.63;;;16.12;57.50
46379;BME280;32084;42.254;22.744;2024-02-26T12:11:16;94593.09;;;16.05;57.78
46379;BME280;32084;42.254;22.744;2024-02-26T12:13:45;94602.19;;;16.24;57.81
46379;BME280;32084;42.254;22.744;2024-02-26T12:16:13;94593.31;;;16.16;55.83
46379;BME280;32084;42.254;22.744;2024-02-26T12:19:00;94591.03;;;16.00;56.08
46379;BME280;32084;42.254;22.744;2024-02-26T12:21:26;94586.25;;;16.02;55.68
46379;BME280;32084;42.254;22.744;2024-02-26T12:23:52;94592.47;;;15.89;55.72
46379;BME280;32084;42.254;22.744;2024-02-26T12:26:19;94589.16;;;15.94;55.39
46379;BME280;32084;42.254;22.744;2024-02-26T12:28:46;94599.28;;;16.25;54.78
46379;BME280;32084;42.254;22.744;2024-02-26T12:31:12;94589.66;;;16.63;54.73
46379;BME280;32084;42.254;22.744;2024-02-26T12:33:38;94600.59;;;16.94;54.99
46379;BME280;32084;42.254;22.744;2024-02-26T12:36:05;94595.28;;;16.68;54.09
46379;BME280;32084;42.254;22.744;2024-02-26T12:38:31;94601.50;;;16.68;54.01
46379;BME280;32084;42.254;22.744;2024-02-26T12:40:58;94591.72;;;16.67;53.74
46379;BME280;32084;42.254;22.744;2024-02-26T12:43:24;94594.50;;;16.47;53.98
46379;BME280;32084;42.254;22.744;2024-02-26T12:45:51;94581.22;;;16.52;54.25
46379;BME280;32084;42.254;22.744;2024-02-26T12:48:18;94582.22;;;16.45;53.66
46379;BME280;32084;42.254;22.744;2024-02-26T12:50:47;94579.97;;;16.42;54.21
46379;BME280;32084;42.254;22.744;2024-02-26T12:53:14;94584.94;;;16.58;54.10
46379;BME280;32084;42.254;22.744;2024-02-26T12:55:40;94586.94;;;16.69;52.74
46379;BME280;32084;42.254;22.744;2024-02-26T12:58:08;94594.66;;;16.66;52.47
46379;BME280;32084;42.254;22.744;2024-02-26T13:00:34;94586.09;;;16.82;52.99
46379;BME280;32084;42.254;22.744;2024-02-26T13:03:00;94584.22;;;16.89;52.57